To NAV CANADA Home Page Login to a new session Search on AWWS site Feedback and Comments Disclaimer Vers la page française équivalente Tips FAQ What's new on the site To the Forecasts and Observations / NOTAM section To "File a Flight Plan" website Publications and other links Update of the User's profile FIC Telephone Numbers My Weather Data Folder Route Weather Data Regional Weather Data Local Weather Data To the Forecasts and Observations / NOTAM section
Request Generated 03/28/2017 at 02:21:44 UTC . Weather information available at that time is displayed.

METAR/TAF

HAY RIVER/MERLYN CARTER AIRPORT/NT    

METAR CYHY 280200Z 09005KT 15SM SCT078 BKN160 BKN230 M10/M14 A3010
RMK AC3AS3CI1 SLP210=
METAR CYHY 280100Z 08006KT 15SM FEW090 BKN130 BKN230 M10/M14 A3011
RMK AC2AS3CI2 SLP214=
METAR CYHY 280000Z 08007KT 15SM FEW070 SCT140 BKN230 M08/M13 A3011
RMK AC1AS3CI3 SLP213=

TAF CYHY 272339Z 2800/2812 07006KT P6SM FEW070 BKN200
FM280400 07008KT P6SM OVC060 TEMPO 2804/2809 5SM -SHSN BKN020
OVC060
FM280900 07005KT 2SM -SN OVC006
RMK NXT FCST BY 280600Z=
Your time UTC time
Weather data provided by Environment Canada and NAV CANADA